Time;durP1;ratioP1;P1;durP2;ratioP2;P2;SDS_P1;SDS_P2;PMS_P1;PMS_P2;Temp;Humidity;BMP_temperature;BMP_pressure;BME280_temperature;BME280_humidity;BME280_pressure;Samples;Min_cycle;Max_cycle;Signal;HPM_P1;HPM_P2
2021/08/27 00:02:10;;;;;;;;;;;;;;;11.40;78.07;96317.59;5071312;28;19960;-83
2021/08/27 00:04:36;;;;;;;;;;;;;;;11.39;78.35;96316.03;5070407;28;19966;-83
2021/08/27 00:07:02;;;;;;;;;;;;;;;11.38;78.61;96312.59;5070750;28;19959;-83
2021/08/27 00:09:28;;;;;;;;;;;;;;;11.36;78.93;96300.72;5070801;28;19957;-83
2021/08/27 00:11:54;;;;;;;;;;;;;;;11.37;78.96;96299.69;5069258;28;19954;-83
2021/08/27 00:14:20;;;;;;;;;;;;;;;11.37;79.43;96305.72;5069590;28;19962;-83
2021/08/27 00:16:46;;;;;;;;;;;;;;;11.40;79.42;96308.94;5070889;28;19958;-83
2021/08/27 00:19:12;;;;;;;;;;;;;;;11.41;79.51;96308.72;5069150;28;20404;-83
2021/08/27 00:21:38;;;;;;;;;;;;;;;11.43;79.89;96298.00;5070778;28;19948;-83
2021/08/27 00:24:05;;;;;;;;;;;;;;;11.44;79.88;96294.31;5070217;28;20050;-83
2021/08/27 00:26:32;;;;;;;;;;;;;;;11.45;79.46;96290.69;5070066;28;19958;-83
2021/08/27 00:28:58;;;;;;;;;;;;;;;11.46;79.29;96289.66;5070857;28;19961;-83
2021/08/27 00:31:24;;;;;;;;;;;;;;;11.45;79.38;96291.47;5068957;28;20412;-83
2021/08/27 00:33:56;;;;;;;;;;;;;;;11.46;79.28;96300.16;5070669;28;19956;-83
2021/08/27 00:36:22;;;;;;;;;;;;;;;11.45;79.11;96301.19;5070034;28;19948;-83
2021/08/27 00:38:47;;;;;;;;;;;;;;;11.44;78.88;96296.97;5069944;28;19955;-83
2021/08/27 00:41:14;;;;;;;;;;;;;;;11.44;79.43;96294.31;5068989;28;20004;-83
2021/08/27 00:43:40;;;;;;;;;;;;;;;11.42;79.16;96297.19;5078349;28;19986;-81
2021/08/27 00:46:06;;;;;;;;;;;;;;;11.42;79.14;96296.38;5090174;28;19971;-79
2021/08/27 00:48:32;;;;;;;;;;;;;;;11.42;79.44;96307.69;5071674;28;19949;-82
2021/08/27 00:50:58;;;;;;;;;;;;;;;11.43;79.74;96305.88;5090210;28;19957;-83
2021/08/27 00:53:24;;;;;;;;;;;;;;;11.41;79.80;96300.06;5055569;28;19962;-82
2021/08/27 00:55:50;;;;;;;;;;;;;;;11.41;79.72;96307.91;5062082;28;19958;-82
2021/08/27 00:58:16;;;;;;;;;;;;;;;11.42;79.61;96306.88;5058852;28;20300;-82
2021/08/27 01:00:42;;;;;;;;;;;;;;;11.42;80.06;96320.00;5076797;28;19953;-82
2021/08/27 01:03:09;;;;;;;;;;;;;;;11.42;80.15;96312.94;5041312;28;19958;-81
2021/08/27 01:05:35;;;;;;;;;;;;;;;11.45;80.51;96311.69;5076448;28;19956;-81
2021/08/27 01:08:17;;;;;;;;;;;;;;;11.47;80.71;96314.91;5058538;28;19955;-82
2021/08/27 01:10:46;;;;;;;;;;;;;;;11.49;81.09;96307.59;5044116;28;19949;-80
2021/08/27 01:13:24;;;;;;;;;;;;;;;11.49;80.70;96311.00;5075456;28;19957;-80
2021/08/27 01:16:09;;;;;;;;;;;;;;;11.51;80.96;96308.16;5076346;28;19956;-81
2021/08/27 01:18:43;;;;;;;;;;;;;;;11.52;81.03;96302.66;5076055;28;19955;-81
2021/08/27 01:21:09;;;;;;;;;;;;;;;11.54;80.75;96305.06;5057941;28;19959;-80
2021/08/27 01:23:38;;;;;;;;;;;;;;;11.56;80.63;96298.56;5057786;28;19966;-81
2021/08/27 01:26:05;;;;;;;;;;;;;;;11.57;81.09;96304.63;5076133;28;19972;-81
2021/08/27 01:28:32;;;;;;;;;;;;;;;11.60;81.24;96306.78;5076121;28;20402;-82
2021/08/27 01:30:57;;;;;;;;;;;;;;;11.61;81.20;96299.72;5057969;28;20363;-81
2021/08/27 01:33:24;;;;;;;;;;;;;;;11.61;81.02;96299.72;5075691;28;19984;-82
2021/08/27 01:36:00;;;;;;;;;;;;;;;11.61;81.10;96300.50;5058092;28;19969;-82
2021/08/27 01:38:36;;;;;;;;;;;;;;;11.62;81.40;96296.06;5076030;28;19957;-81
2021/08/27 01:41:05;;;;;;;;;;;;;;;11.62;81.46;96298.69;5075720;28;20334;-79
2021/08/27 01:43:31;;;;;;;;;;;;;;;11.62;81.62;96301.31;5075480;28;19988;-79
2021/08/27 01:46:00;;;;;;;;;;;;;;;11.61;81.48;96302.34;5075594;28;19970;-81
2021/08/27 01:48:31;;;;;;;;;;;;;;;11.61;81.52;96297.88;5076243;28;19952;-81
2021/08/27 01:50:57;;;;;;;;;;;;;;;11.61;81.40;96295.25;5075488;28;19950;-83
2021/08/27 01:53:24;;;;;;;;;;;;;;;11.61;81.48;96303.13;5075590;28;19951;-81
2021/08/27 01:55:51;;;;;;;;;;;;;;;11.62;81.14;96290.81;5075458;28;19960;-80
2021/08/27 01:58:17;;;;;;;;;;;;;;;11.62;81.11;96291.59;5057087;28;19972;-82
2021/08/27 02:00:43;;;;;;;;;;;;;;;11.64;80.99;96297.44;5075759;28;19956;-80
2021/08/27 02:03:09;;;;;;;;;;;;;;;11.65;81.51;96299.03;5075120;28;19964;-82
2021/08/27 02:05:36;;;;;;;;;;;;;;;11.68;81.62;96303.03;5057657;28;19952;-81
2021/08/27 02:08:03;;;;;;;;;;;;;;;11.67;81.55;96307.47;5074109;28;19946;-80
2021/08/27 02:10:30;;;;;;;;;;;;;;;11.70;81.93;96314.91;5057118;28;19958;-80
2021/08/27 02:12:56;;;;;;;;;;;;;;;11.70;82.32;96312.28;5056301;28;19967;-80
2021/08/27 02:15:23;;;;;;;;;;;;;;;11.72;81.97;96312.06;5075110;28;19966;-80
2021/08/27 02:17:50;;;;;;;;;;;;;;;11.74;81.84;96307.38;5075123;28;19953;-80
2021/08/27 02:20:16;;;;;;;;;;;;;;;11.75;81.74;96309.75;5074869;28;19950;-79
2021/08/27 02:22:44;;;;;;;;;;;;;;;11.74;81.12;96310.00;5074985;28;19960;-80
2021/08/27 02:25:14;;;;;;;;;;;;;;;11.72;80.96;96312.06;5056902;28;20339;-81
2021/08/27 02:27:41;;;;;;;;;;;;;;;11.69;81.16;96309.88;5074689;28;19955;-82
2021/08/27 02:30:07;;;;;;;;;;;;;;;11.68;81.33;96311.72;5057291;28;19973;-82
2021/08/27 02:32:34;;;;;;;;;;;;;;;11.68;81.32;96314.34;5075248;28;19960;-82
2021/08/27 02:35:02;;;;;;;;;;;;;;;11.70;81.71;96314.91;5056810;28;19958;-82
2021/08/27 02:37:30;;;;;;;;;;;;;;;11.71;81.71;96311.25;5056425;28;19952;-82
2021/08/27 02:39:59;;;;;;;;;;;;;;;11.73;81.19;96305.78;5074357;28;19957;-82
2021/08/27 02:42:30;;;;;;;;;;;;;;;11.75;81.56;96301.09;5074554;28;19947;-82
2021/08/27 02:44:56;;;;;;;;;;;;;;;11.75;81.06;96306.34;5073412;28;19996;-83
2021/08/27 02:47:22;;;;;;;;;;;;;;;11.75;81.46;96311.59;5074429;28;19961;-79
2021/08/27 02:49:48;;;;;;;;;;;;;;;11.75;80.94;96311.59;5074440;28;19962;-81
2021/08/27 02:52:32;;;;;;;;;;;;;;;11.76;81.03;96314.00;5074363;28;19957;-81
2021/08/27 02:55:22;;;;;;;;;;;;;;;11.78;81.70;96308.53;5039782;28;19954;-81
2021/08/27 02:58:07;;;;;;;;;;;;;;;11.77;81.24;96315.59;5063766;28;19956;-82
2021/08/27 03:00:36;;;;;;;;;;;;;;;11.79;80.72;96312.75;5073454;28;19941;-80
2021/08/27 03:03:03;;;;;;;;;;;;;;;11.77;81.32;96307.72;5074091;28;19957;-79
2021/08/27 03:05:31;;;;;;;;;;;;;;;11.78;81.54;96311.94;5073389;28;19977;-80
2021/08/27 03:08:02;;;;;;;;;;;;;;;11.77;81.27;96315.59;5074487;28;19953;-80
2021/08/27 03:10:28;;;;;;;;;;;;;;;11.79;81.31;96310.13;5074194;28;19950;-81
2021/08/27 03:13:03;;;;;;;;;;;;;;;11.79;81.85;96307.50;5073766;28;19995;-81
2021/08/27 03:15:38;;;;;;;;;;;;;;;11.79;81.82;96305.66;5073679;28;19952;-80
2021/08/27 03:18:09;;;;;;;;;;;;;;;11.81;81.51;96305.44;5073831;28;20007;-81
2021/08/27 03:20:53;;;;;;;;;;;;;;;11.81;82.40;96300.19;5074226;28;19953;-81
2021/08/27 03:23:19;;;;;;;;;;;;;;;11.80;82.30;96298.59;5074105;28;19954;-80
2021/08/27 03:25:46;;;;;;;;;;;;;;;11.79;81.87;96297.78;5073705;28;19975;-80
2021/08/27 03:28:14;;;;;;;;;;;;;;;11.82;82.69;96295.72;5073555;28;19967;-81
2021/08/27 03:30:41;;;;;;;;;;;;;;;11.81;83.12;96297.56;5074210;28;19952;-81
2021/08/27 03:33:09;;;;;;;;;;;;;;;11.84;83.38;96296.28;5073912;28;19952;-81
2021/08/27 03:35:35;;;;;;;;;;;;;;;11.83;83.07;96300.75;5074172;28;19957;-80
2021/08/27 03:38:04;;;;;;;;;;;;;;;11.83;82.84;96302.59;5073689;28;19954;-81
2021/08/27 03:40:31;;;;;;;;;;;;;;;11.82;82.77;96300.97;5073702;28;20416;-81
2021/08/27 03:42:58;;;;;;;;;;;;;;;11.84;83.00;96307.59;5073362;28;19954;-80
2021/08/27 03:45:25;;;;;;;;;;;;;;;11.86;83.25;96307.38;5055117;28;19969;-80
2021/08/27 03:47:51;;;;;;;;;;;;;;;11.88;83.28;96305.31;5073691;28;19966;-80
2021/08/27 03:50:17;;;;;;;;;;;;;;;11.91;83.18;96302.28;5073727;28;19956;-82
2021/08/27 03:52:44;;;;;;;;;;;;;;;11.93;83.09;96305.47;5072967;28;19949;-81
2021/08/27 03:55:15;;;;;;;;;;;;;;;11.94;83.22;96301.78;5073752;28;19971;-80
2021/08/27 03:57:42;;;;;;;;;;;;;;;11.93;83.03;96306.25;5073620;28;19963;-82
2021/08/27 04:00:08;;;;;;;;;;;;;;;11.96;83.15;96307.63;5055534;28;19957;-83
2021/08/27 04:02:35;;;;;;;;;;;;;;;11.95;83.45;96311.28;5073456;28;19974;-83
2021/08/27 04:05:07;;;;;;;;;;;;;;;11.94;83.13;96310.47;5073439;28;20409;-85
2021/08/27 04:07:33;;;;;;;;;;;;;;;11.95;84.17;96314.72;5073302;28;20408;-82
2021/08/27 04:09:59;;;;;;;;;;;;;;;11.90;84.32;96304.06;5073574;28;20058;-85
2021/08/27 04:12:24;;;;;;;;;;;;;;;11.85;84.84;96308.41;5073670;28;19951;-82
2021/08/27 04:14:50;;;;;;;;;;;;;;;11.82;85.94;96309.66;5073593;28;19995;-85
2021/08/27 04:17:16;;;;;;;;;;;;;;;11.78;86.35;96301.44;5073420;28;20324;-85
2021/08/27 04:19:43;;;;;;;;;;;;;;;11.77;85.51;96302.44;5055535;28;20045;-88
2021/08/27 04:22:08;;;;;;;;;;;;;;;11.79;86.08;96308.28;5073048;28;19944;-81
2021/08/27 04:24:34;;;;;;;;;;;;;;;11.81;87.08;96308.06;5073839;28;19972;-84
2021/08/27 04:27:00;;;;;;;;;;;;;;;11.83;86.59;96308.63;5073364;28;19960;-84
2021/08/27 04:29:26;;;;;;;;;;;;;;;11.84;86.52;96320.72;5072751;28;19952;-83
2021/08/27 04:31:52;;;;;;;;;;;;;;;11.83;85.80;96319.16;5076855;28;19952;-82
2021/08/27 04:34:18;;;;;;;;;;;;;;;11.77;85.89;96322.69;5059389;28;19954;-84
2021/08/27 04:36:44;;;;;;;;;;;;;;;11.68;86.34;96318.81;5059002;28;19979;-84
2021/08/27 04:39:10;;;;;;;;;;;;;;;11.63;87.43;96319.47;5076733;28;19987;-84
2021/08/27 04:41:36;;;;;;;;;;;;;;;11.62;87.13;96317.09;5077081;28;19949;-83
2021/08/27 04:44:02;;;;;;;;;;;;;;;11.65;87.89;96337.63;5076217;28;19981;-83
2021/08/27 04:46:29;;;;;;;;;;;;;;;11.69;87.56;96323.00;5076655;28;20460;-83
2021/08/27 04:48:55;;;;;;;;;;;;;;;11.72;87.17;96333.88;5058102;28;19947;-83
2021/08/27 04:51:21;;;;;;;;;;;;;;;11.75;87.82;96335.25;5057916;28;19964;-82
2021/08/27 04:53:46;;;;;;;;;;;;;;;11.73;87.18;96332.84;5076929;28;20049;-82
2021/08/27 04:56:12;;;;;;;;;;;;;;;11.73;87.23;96337.28;5076331;28;19997;-83
2021/08/27 04:58:38;;;;;;;;;;;;;;;11.74;87.49;96337.06;5076655;28;20006;-83
2021/08/27 05:01:04;;;;;;;;;;;;;;;11.77;87.42;96349.75;5076413;28;19982;-83
2021/08/27 05:03:30;;;;;;;;;;;;;;;11.75;86.59;96343.13;5076578;28;19960;-82
2021/08/27 05:05:56;;;;;;;;;;;;;;;11.72;87.41;96338.34;5076019;28;19972;-83
2021/08/27 05:08:22;;;;;;;;;;;;;;;11.68;86.43;96345.06;5058713;28;20033;-83
2021/08/27 05:10:48;;;;;;;;;;;;;;;11.63;88.04;96347.56;5058423;28;20436;-83
2021/08/27 05:13:13;;;;;;;;;;;;;;;11.60;88.83;96354.06;5058328;28;19989;-83
2021/08/27 05:15:39;;;;;;;;;;;;;;;11.58;87.50;96345.63;5057537;28;20035;-84
2021/08/27 05:18:05;;;;;;;;;;;;;;;11.56;87.87;96350.28;5058225;28;20497;-84
2021/08/27 05:20:31;;;;;;;;;;;;;;;11.52;85.22;96354.41;5058053;28;19963;-84
2021/08/27 05:22:57;;;;;;;;;;;;;;;11.47;86.47;96357.72;5076159;28;19981;-84
2021/08/27 05:25:23;;;;;;;;;;;;;;;11.45;88.67;96358.97;5076136;28;20019;-84
2021/08/27 05:27:50;;;;;;;;;;;;;;;11.44;87.46;96359.97;5075896;28;19953;-84
2021/08/27 05:30:18;;;;;;;;;;;;;;;11.46;87.37;96353.47;5075597;28;19961;-84
2021/08/27 05:32:45;;;;;;;;;;;;;;;11.48;88.60;96355.88;5040951;28;20314;-84
2021/08/27 05:35:11;;;;;;;;;;;;;;;11.51;88.65;96363.31;5057588;28;19952;-84
2021/08/27 05:37:37;;;;;;;;;;;;;;;11.61;88.64;96368.00;5076255;28;19954;-84
2021/08/27 05:40:04;;;;;;;;;;;;;;;11.66;87.96;96368.13;5075681;28;20002;-83
2021/08/27 05:42:30;;;;;;;;;;;;;;;11.69;87.62;96380.81;5075701;28;19955;-84
2021/08/27 05:44:56;;;;;;;;;;;;;;;11.70;87.29;96377.97;5075371;28;20449;-84
2021/08/27 05:47:22;;;;;;;;;;;;;;;11.72;87.93;96380.38;5075546;28;19959;-83
2021/08/27 05:49:48;;;;;;;;;;;;;;;11.75;88.70;96383.31;5057836;28;20388;-83
2021/08/27 05:52:14;;;;;;;;;;;;;;;11.81;87.00;96384.25;5075905;28;19952;-84
2021/08/27 05:54:40;;;;;;;;;;;;;;;11.89;88.64;96383.16;5075493;28;20404;-84
2021/08/27 05:57:05;;;;;;;;;;;;;;;11.98;86.72;96392.28;5075600;28;20026;-84
2021/08/27 05:59:32;;;;;;;;;;;;;;;12.03;86.42;96387.16;5075426;28;20030;-83
2021/08/27 06:01:58;;;;;;;;;;;;;;;12.05;86.43;96392.97;5075084;28;19950;-83
2021/08/27 06:04:23;;;;;;;;;;;;;;;12.05;86.41;96387.72;5057537;28;19997;-83
2021/08/27 06:06:53;;;;;;;;;;;;;;;12.08;86.08;96387.28;5057069;28;19950;-84
2021/08/27 06:09:19;;;;;;;;;;;;;;;12.06;85.95;96394.59;5057923;28;20304;-84
2021/08/27 06:11:45;;;;;;;;;;;;;;;12.05;85.64;96394.81;5056990;28;19960;-84
2021/08/27 06:14:11;;;;;;;;;;;;;;;12.09;86.24;96393.31;5074753;28;20009;-83
2021/08/27 06:16:38;;;;;;;;;;;;;;;12.14;85.51;96396.09;5074763;28;19968;-83
2021/08/27 06:19:04;;;;;;;;;;;;;;;12.19;85.77;96399.59;5074224;28;19950;-84
2021/08/27 06:21:31;;;;;;;;;;;;;;;12.26;84.87;96391.59;5057526;28;19944;-83
2021/08/27 06:23:57;;;;;;;;;;;;;;;12.36;85.10;96391.81;5056938;28;19951;-83
2021/08/27 06:26:23;;;;;;;;;;;;;;;12.73;85.22;96396.03;5065066;28;19961;-83
2021/08/27 06:28:49;;;;;;;;;;;;;;;13.02;83.60;96401.28;5074586;28;19992;-83
2021/08/27 06:31:15;;;;;;;;;;;;;;;13.22;81.79;96408.78;5074531;28;20338;-83
2021/08/27 06:33:41;;;;;;;;;;;;;;;13.13;80.76;96403.91;5056863;28;19978;-83
2021/08/27 06:36:06;;;;;;;;;;;;;;;12.98;81.26;96414.94;5074579;28;19991;-83
2021/08/27 06:38:32;;;;;;;;;;;;;;;12.86;82.84;96414.16;5055608;28;19950;-83
2021/08/27 06:41:00;;;;;;;;;;;;;;;12.75;82.03;96417.63;5056603;28;19964;-83
2021/08/27 06:43:27;;;;;;;;;;;;;;;12.73;83.01;96420.50;5074287;28;19982;-83
2021/08/27 06:45:54;;;;;;;;;;;;;;;12.88;80.98;96420.00;5074193;28;20430;-83
2021/08/27 06:48:20;;;;;;;;;;;;;;;13.15;81.54;96424.75;5074363;28;19954;-83
2021/08/27 06:50:46;;;;;;;;;;;;;;;13.48;79.13;96425.88;5074441;28;19957;-83
2021/08/27 06:53:12;;;;;;;;;;;;;;;13.53;79.59;96423.34;5073957;28;19962;-82
2021/08/27 06:55:38;;;;;;;;;;;;;;;13.68;79.10;96418.34;5056727;28;19957;-83
2021/08/27 06:58:04;;;;;;;;;;;;;;;13.78;77.96;96415.06;5074199;28;19962;-82
2021/08/27 07:00:30;;;;;;;;;;;;;;;14.27;76.87;96419.78;5055601;28;19960;-82
2021/08/27 07:02:56;;;;;;;;;;;;;;;14.71;76.27;96419.88;5074708;28;19967;-82
2021/08/27 07:05:22;;;;;;;;;;;;;;;14.66;74.13;96420.63;5074026;28;20405;-82
2021/08/27 07:07:48;;;;;;;;;;;;;;;14.47;74.75;96422.72;5073397;28;20315;-82
2021/08/27 07:10:14;;;;;;;;;;;;;;;14.41;75.05;96421.03;5055613;28;19966;-83
2021/08/27 07:12:41;;;;;;;;;;;;;;;14.31;74.32;96420.88;5073991;28;19951;-82
2021/08/27 07:15:07;;;;;;;;;;;;;;;14.17;75.45;96415.97;5072735;28;19966;-82
2021/08/27 07:17:33;;;;;;;;;;;;;;;14.12;76.13;96407.16;5074038;28;19951;-82
2021/08/27 07:20:00;;;;;;;;;;;;;;;14.10;74.64;96411.88;5074433;28;19949;-82
2021/08/27 07:22:26;;;;;;;;;;;;;;;14.09;76.13;96421.63;5073175;28;19952;-82
2021/08/27 07:24:51;;;;;;;;;;;;;;;14.36;75.93;96415.69;5055488;28;19977;-82
2021/08/27 07:27:18;;;;;;;;;;;;;;;14.80;74.98;96407.84;5073722;28;20377;-82
2021/08/27 07:29:44;;;;;;;;;;;;;;;15.24;73.84;96418.38;5073786;28;20395;-82
2021/08/27 07:32:13;;;;;;;;;;;;;;;15.73;72.34;96412.31;5073808;28;19954;-82
2021/08/27 07:34:40;;;;;;;;;;;;;;;15.78;71.54;96412.34;5073738;28;19972;-82
2021/08/27 07:37:06;;;;;;;;;;;;;;;16.11;71.63;96415.78;5074025;28;20025;-81
2021/08/27 07:39:32;;;;;;;;;;;;;;;16.39;68.78;96407.47;5073640;28;19956;-81
2021/08/27 07:41:58;;;;;;;;;;;;;;;16.69;68.40;96405.25;5073655;28;20449;-82
2021/08/27 07:44:24;;;;;;;;;;;;;;;16.90;65.95;96396.38;5073501;28;19982;-82
2021/08/27 07:46:50;;;;;;;;;;;;;;;16.83;63.85;96386.00;5055714;28;19967;-82
2021/08/27 07:49:16;;;;;;;;;;;;;;;16.53;66.63;96422.94;5073533;28;19966;-82
2021/08/27 07:51:46;;;;;;;;;;;;;;;16.18;65.05;96414.47;5073750;28;20377;-81
2021/08/27 07:54:13;;;;;;;;;;;;;;;15.89;67.04;96434.38;5073748;28;20344;-81
2021/08/27 07:56:39;;;;;;;;;;;;;;;15.70;69.02;96450.56;5073340;28;19964;-81
2021/08/27 07:59:05;;;;;;;;;;;;;;;15.86;69.44;96430.38;5073596;28;19965;-81
2021/08/27 08:01:30;;;;;;;;;;;;;;;16.20;68.92;96427.47;5073594;28;20073;-81
2021/08/27 08:03:57;;;;;;;;;;;;;;;16.36;68.29;96431.81;5073355;28;20013;-82
2021/08/27 08:06:23;;;;;;;;;;;;;;;16.60;67.78;96429.56;5076638;28;19979;-81
2021/08/27 08:08:52;;;;;;;;;;;;;;;16.58;64.17;96412.34;5077349;28;20356;-82
2021/08/27 08:11:18;;;;;;;;;;;;;;;16.75;65.27;96423.56;5077296;28;20428;-81
2021/08/27 08:13:44;;;;;;;;;;;;;;;16.72;62.46;96402.09;5077318;28;19991;-81
2021/08/27 08:16:10;;;;;;;;;;;;;;;16.70;62.86;96406.88;5077280;28;20309;-81
2021/08/27 08:18:36;;;;;;;;;;;;;;;16.59;62.18;96421.91;5077418;28;19964;-81
2021/08/27 08:21:03;;;;;;;;;;;;;;;16.38;61.33;96397.97;5077173;28;19964;-82
2021/08/27 08:23:29;;;;;;;;;;;;;;;16.38;63.46;96426.28;5077006;28;20406;-82
2021/08/27 08:25:55;;;;;;;;;;;;;;;16.37;62.94;96424.66;5077061;28;20024;-82
2021/08/27 08:28:21;;;;;;;;;;;;;;;16.41;62.40;96413.31;5077494;28;19958;-82
2021/08/27 08:30:48;;;;;;;;;;;;;;;16.59;64.15;96441.22;5076993;28;19960;-82
2021/08/27 08:33:14;;;;;;;;;;;;;;;16.75;63.35;96426.19;5076954;28;19954;-82
2021/08/27 08:35:40;;;;;;;;;;;;;;;16.68;62.52;96433.59;5058785;28;19966;-81
2021/08/27 08:38:06;;;;;;;;;;;;;;;16.55;61.18;96420.81;5076670;28;19955;-82
2021/08/27 08:40:37;;;;;;;;;;;;;;;16.35;62.88;96437.34;5076581;28;20421;-82
2021/08/27 08:43:03;;;;;;;;;;;;;;;16.22;63.67;96442.03;5076973;28;20002;-81
2021/08/27 08:45:29;;;;;;;;;;;;;;;16.22;63.12;96433.31;5076725;28;19972;-82
2021/08/27 08:47:56;;;;;;;;;;;;;;;16.15;58.75;96401.78;5076532;28;19961;-82
2021/08/27 08:50:22;;;;;;;;;;;;;;;16.17;62.71;96444.66;5076231;28;19962;-82
2021/08/27 08:52:48;;;;;;;;;;;;;;;16.30;60.14;96414.31;5076605;28;19952;-82
2021/08/27 08:55:14;;;;;;;;;;;;;;;16.69;64.51;96455.56;5076646;28;19954;-82
2021/08/27 08:57:40;;;;;;;;;;;;;;;17.04;59.20;96400.13;5076376;28;20339;-82
2021/08/27 09:00:07;;;;;;;;;;;;;;;17.19;58.29;96385.34;5076639;28;20305;-82
2021/08/27 09:02:33;;;;;;;;;;;;;;;17.25;58.51;96408.16;5075864;28;19955;-82
2021/08/27 09:04:59;;;;;;;;;;;;;;;17.29;61.01;96417.16;5076334;28;19963;-82
2021/08/27 09:07:25;;;;;;;;;;;;;;;17.32;57.30;96389.34;5076254;28;19987;-82
2021/08/27 09:09:50;;;;;;;;;;;;;;;17.38;56.99;96389.09;5058555;28;19956;-82
2021/08/27 09:12:23;;;;;;;;;;;;;;;17.43;56.00;96385.66;5076372;28;19969;-81
2021/08/27 09:14:56;;;;;;;;;;;;;;;17.45;58.20;96410.06;5057640;28;19956;-82
2021/08/27 09:17:31;;;;;;;;;;;;;;;17.43;54.99;96393.63;5067142;28;20423;-82
2021/08/27 09:19:57;;;;;;;;;;;;;;;17.35;52.86;96359.69;5062406;28;20324;-82
2021/08/27 09:22:24;;;;;;;;;;;;;;;17.41;56.98;96401.03;5058505;28;19961;-82
2021/08/27 09:25:10;;;;;;;;;;;;;;;17.51;54.92;96389.63;5075842;28;20338;-82
2021/08/27 09:27:56;;;;;;;;;;;;;;;17.66;55.50;96384.38;5075454;28;20331;-82
2021/08/27 09:30:22;;;;;;;;;;;;;;;17.85;54.82;96368.75;5075562;28;20014;-82
2021/08/27 09:32:48;;;;;;;;;;;;;;;18.06;51.96;96356.25;5076151;28;19965;-82
2021/08/27 09:35:20;;;;;;;;;;;;;;;17.95;53.05;96382.00;5057808;28;20049;-82
2021/08/27 09:37:47;;;;;;;;;;;;;;;17.75;55.84;96409.28;5076203;28;20323;-82
2021/08/27 09:40:18;;;;;;;;;;;;;;;17.67;54.70;96409.81;5075772;28;20033;-82
2021/08/27 09:42:50;;;;;;;;;;;;;;;17.73;56.68;96419.38;5075273;28;19963;-82
2021/08/27 09:45:17;;;;;;;;;;;;;;;17.93;55.50;96415.16;5076066;28;19988;-82
2021/08/27 09:47:56;;;;;;;;;;;;;;;17.99;54.30;96408.78;5075481;28;19963;-82
2021/08/27 09:50:24;;;;;;;;;;;;;;;17.95;57.70;96434.25;5075711;28;20337;-83
2021/08/27 09:52:51;;;;;;;;;;;;;;;17.78;56.29;96432.63;5075643;28;19957;-82
2021/08/27 09:55:17;;;;;;;;;;;;;;;17.58;55.08;96422.81;5075349;28;19975;-82
2021/08/27 09:57:44;;;;;;;;;;;;;;;17.33;56.00;96428.06;5075078;28;19955;-83
2021/08/27 10:00:17;;;;;;;;;;;;;;;17.19;57.27;96427.75;5057521;28;20405;-82
2021/08/27 10:02:43;;;;;;;;;;;;;;;17.07;56.84;96438.56;5074214;28;19949;-82
2021/08/27 10:05:10;;;;;;;;;;;;;;;17.00;56.94;96432.72;5057342;28;20054;-82
2021/08/27 10:07:42;;;;;;;;;;;;;;;17.02;59.14;96446.50;5075046;28;20353;-82
2021/08/27 10:10:12;;;;;;;;;;;;;;;17.07;57.67;96427.94;5057241;28;19962;-82
2021/08/27 10:12:40;;;;;;;;;;;;;;;17.04;58.83;96449.69;5056509;28;19962;-83
2021/08/27 10:15:07;;;;;;;;;;;;;;;17.00;58.45;96444.09;5075237;28;19985;-83
2021/08/27 10:17:33;;;;;;;;;;;;;;;17.01;57.63;96429.81;5074941;28;19955;-83
2021/08/27 10:19:59;;;;;;;;;;;;;;;17.27;57.43;96431.75;5074961;28;19958;-83
2021/08/27 10:22:25;;;;;;;;;;;;;;;17.60;56.38;96414.59;5057217;28;20008;-83
2021/08/27 10:24:51;;;;;;;;;;;;;;;17.85;56.44;96411.19;5074962;28;19957;-83
2021/08/27 10:27:18;;;;;;;;;;;;;;;18.07;54.86;96404.81;5074268;28;19953;-83
2021/08/27 10:29:47;;;;;;;;;;;;;;;17.98;51.76;96381.47;5074395;28;19962;-82
2021/08/27 10:32:13;;;;;;;;;;;;;;;17.65;50.59;96383.56;5073801;28;19965;-82
2021/08/27 10:34:42;;;;;;;;;;;;;;;17.35;53.55;96410.03;5074692;28;19958;-83
2021/08/27 10:37:09;;;;;;;;;;;;;;;17.23;55.47;96429.59;5075230;28;19953;-83
2021/08/27 10:39:43;;;;;;;;;;;;;;;17.32;56.82;96434.41;5074932;28;19964;-83
2021/08/27 10:42:29;;;;;;;;;;;;;;;17.37;53.99;96418.53;5057099;28;19958;-83
2021/08/27 10:44:55;;;;;;;;;;;;;;;17.62;57.21;96423.09;5074031;28;19980;-84
2021/08/27 10:47:21;;;;;;;;;;;;;;;17.68;55.46;96415.91;5056999;28;19964;-83
2021/08/27 10:49:47;;;;;;;;;;;;;;;17.72;55.39;96411.66;5056082;28;19959;-83
2021/08/27 10:52:22;;;;;;;;;;;;;;;17.79;54.26;96402.41;5074738;28;19950;-83
2021/08/27 10:55:07;;;;;;;;;;;;;;;18.02;55.98;96416.25;5056578;28;20394;-83
2021/08/27 10:57:42;;;;;;;;;;;;;;;18.05;52.93;96386.50;5063898;28;19979;-83
2021/08/27 11:00:08;;;;;;;;;;;;;;;17.99;55.33;96406.94;5074098;28;19964;-84
2021/08/27 11:02:53;;;;;;;;;;;;;;;17.97;51.94;96385.16;5074668;28;19958;-84
2021/08/27 11:05:39;;;;;;;;;;;;;;;18.04;54.57;96406.16;5074014;28;19962;-83
2021/08/27 11:08:06;;;;;;;;;;;;;;;18.10;54.08;96397.13;5074205;28;19950;-83
2021/08/27 11:10:34;;;;;;;;;;;;;;;18.39;53.86;96388.56;5074003;28;20303;-83
2021/08/27 11:13:00;;;;;;;;;;;;;;;18.56;53.26;96393.56;5055792;28;19961;-83
2021/08/27 11:15:29;;;;;;;;;;;;;;;18.83;50.67;96383.41;5073795;28;19963;-83
2021/08/27 11:18:04;;;;;;;;;;;;;;;19.16;53.00;96401.63;5073109;28;20001;-82
2021/08/27 11:20:30;;;;;;;;;;;;;;;19.16;50.05;96378.50;5074041;28;19960;-83
2021/08/27 11:22:55;;;;;;;;;;;;;;;18.86;47.88;96380.22;5073738;28;19954;-83
2021/08/27 11:25:23;;;;;;;;;;;;;;;18.59;48.45;96396.50;5073318;28;19975;-83
2021/08/27 11:28:08;;;;;;;;;;;;;;;18.38;50.64;96397.63;5073948;28;20419;-84
2021/08/27 11:30:35;;;;;;;;;;;;;;;18.08;50.83;96407.22;5059812;28;19963;-86
2021/08/27 11:33:01;;;;;;;;;;;;;;;17.96;52.55;96420.75;5055114;28;19972;-85
2021/08/27 11:35:28;;;;;;;;;;;;;;;17.94;52.18;96414.13;5073716;28;19960;-86
2021/08/27 11:37:58;;;;;;;;;;;;;;;17.79;51.79;96417.53;5074861;28;19960;-83
2021/08/27 11:40:24;;;;;;;;;;;;;;;17.57;49.67;96405.28;5073759;28;19954;-83
2021/08/27 11:42:54;;;;;;;;;;;;;;;17.42;49.96;96410.56;5073267;28;20324;-84
2021/08/27 11:45:22;;;;;;;;;;;;;;;17.27;52.47;96427.25;5073535;28;19956;-84
2021/08/27 11:47:49;;;;;;;;;;;;;;;17.15;51.03;96419.50;5055816;28;19955;-84
2021/08/27 11:50:27;;;;;;;;;;;;;;;17.13;52.05;96426.13;5074040;28;19961;-84
2021/08/27 11:52:58;;;;;;;;;;;;;;;17.08;54.33;96445.47;5073491;28;19966;-84
2021/08/27 11:55:25;;;;;;;;;;;;;;;17.00;53.48;96436.16;5073802;28;19971;-84
2021/08/27 11:57:53;;;;;;;;;;;;;;;16.96;54.63;96447.53;5073499;28;19969;-84
2021/08/27 12:00:20;;;;;;;;;;;;;;;16.95;54.47;96443.28;5073491;28;19950;-85
2021/08/27 12:02:50;;;;;;;;;;;;;;;16.93;55.40;96450.69;5055389;28;19952;-83
2021/08/27 12:05:16;;;;;;;;;;;;;;;16.90;55.42;96443.25;5063746;28;19947;-83
2021/08/27 12:07:52;;;;;;;;;;;;;;;16.87;54.95;96447.22;5073724;28;19967;-83
2021/08/27 12:10:18;;;;;;;;;;;;;;;16.88;54.61;96446.16;5073387;28;19955;-83
2021/08/27 12:12:46;;;;;;;;;;;;;;;16.84;54.34;96442.47;5073088;28;19964;-83
2021/08/27 12:15:22;;;;;;;;;;;;;;;16.78;54.01;96443.44;5073336;28;19963;-83
2021/08/27 12:17:59;;;;;;;;;;;;;;;16.76;54.43;96441.06;5073162;28;19961;-84
2021/08/27 12:20:30;;;;;;;;;;;;;;;16.77;50.53;96418.78;5055117;28;19952;-83
2021/08/27 12:23:01;;;;;;;;;;;;;;;16.88;52.51;96435.56;5072602;28;19954;-84
2021/08/27 12:25:30;;;;;;;;;;;;;;;17.06;52.54;96428.22;5073240;28;19962;-83
2021/08/27 12:27:57;;;;;;;;;;;;;;;17.17;51.67;96437.81;5073193;28;19963;-84
2021/08/27 12:30:23;;;;;;;;;;;;;;;17.26;52.30;96433.63;5073386;28;19960;-84
2021/08/27 12:32:50;;;;;;;;;;;;;;;17.36;52.35;96430.97;5073281;28;19963;-82
2021/08/27 12:35:19;;;;;;;;;;;;;;;17.48;50.88;96430.75;5054959;28;19956;-82
2021/08/27 12:37:47;;;;;;;;;;;;;;;17.86;50.67;96412.78;5072400;28;19960;-83
2021/08/27 12:40:15;;;;;;;;;;;;;;;18.32;51.13;96418.06;5073405;28;19964;-82
2021/08/27 12:43:03;;;;;;;;;;;;;;;18.58;50.13;96415.34;5072968;28;19966;-82
2021/08/27 12:45:41;;;;;;;;;;;;;;;18.53;46.93;96408.19;5063705;28;19973;-83
2021/08/27 12:48:08;;;;;;;;;;;;;;;18.34;51.12;96418.59;5072764;28;19966;-82
2021/08/27 12:50:43;;;;;;;;;;;;;;;18.14;50.56;96424.72;5072804;28;19964;-83
2021/08/27 12:53:09;;;;;;;;;;;;;;;18.15;50.75;96428.16;5075864;28;20396;-82